createdAt,value
2019-05-19T00:02:26.214Z,24.80
2019-05-19T00:04:55.052Z,23.60
2019-05-19T00:07:23.866Z,24.50
2019-05-19T00:09:52.692Z,20.43
2019-05-19T00:12:21.492Z,19.77
2019-05-19T00:14:50.261Z,24.12
2019-05-19T00:17:19.025Z,22.07
2019-05-19T00:19:47.812Z,31.57
2019-05-19T00:22:16.691Z,23.00
2019-05-19T00:24:45.452Z,29.07
2019-05-19T00:27:14.260Z,41.13
2019-05-19T00:29:43.054Z,23.47
2019-05-19T00:32:11.855Z,20.17
2019-05-19T00:34:40.653Z,22.15
2019-05-19T00:37:09.413Z,32.00
2019-05-19T00:39:38.173Z,33.85
2019-05-19T00:42:06.972Z,25.35
2019-05-19T00:44:35.694Z,30.65
2019-05-19T00:47:04.495Z,24.90
2019-05-19T00:49:41.041Z,20.50
2019-05-19T00:52:03.783Z,18.23
2019-05-19T00:54:32.554Z,18.12
2019-05-19T00:57:03.633Z,18.98
2019-05-19T00:59:33.734Z,19.85
2019-05-19T01:02:02.558Z,18.40
2019-05-19T01:04:31.437Z,19.73
2019-05-19T01:07:00.174Z,21.85
2019-05-19T01:09:28.925Z,21.05
2019-05-19T01:11:57.736Z,22.73
2019-05-19T01:14:26.494Z,24.23
2019-05-19T01:16:55.314Z,19.27
2019-05-19T01:19:24.094Z,16.52
2019-05-19T01:21:53.655Z,17.17
2019-05-19T01:24:22.554Z,20.00
2019-05-19T01:26:51.342Z,17.80
2019-05-19T01:29:20.154Z,21.10
2019-05-19T01:31:49.035Z,19.87
2019-05-19T01:34:17.774Z,19.17
2019-05-19T01:36:46.576Z,17.12
2019-05-19T01:39:15.354Z,16.90
2019-05-19T01:41:44.174Z,17.40
2019-05-19T01:44:12.962Z,16.80
2019-05-19T01:46:41.714Z,16.48
2019-05-19T01:49:10.514Z,15.65
2019-05-19T01:51:39.357Z,13.43
2019-05-19T01:54:08.154Z,12.80
2019-05-19T01:56:36.914Z,15.05
2019-05-19T01:59:05.674Z,16.50
2019-05-19T02:01:34.516Z,13.30
2019-05-19T02:04:03.282Z,13.05
2019-05-19T02:06:32.137Z,17.82
2019-05-19T02:09:00.894Z,16.75
2019-05-19T02:11:29.680Z,17.65
2019-05-19T02:13:58.454Z,16.97
2019-05-19T02:16:27.216Z,16.97
2019-05-19T02:18:56.002Z,14.05
2019-05-19T02:21:24.759Z,15.63
2019-05-19T02:23:53.535Z,15.93
2019-05-19T02:26:22.318Z,15.35
2019-05-19T02:28:51.061Z,17.52
2019-05-19T02:31:19.869Z,17.12
2019-05-19T02:33:48.635Z,18.17
2019-05-19T02:36:17.535Z,14.50
2019-05-19T02:38:46.301Z,17.42
2019-05-19T02:41:17.595Z,15.68
2019-05-19T02:43:48.095Z,14.30
2019-05-19T02:46:17.536Z,14.43
2019-05-19T02:48:47.074Z,14.33
2019-05-19T02:51:19.336Z,14.15
2019-05-19T02:53:49.100Z,14.50
2019-05-19T02:56:18.324Z,13.43
2019-05-19T02:58:47.776Z,13.20
2019-05-19T03:01:16.574Z,16.32
2019-05-19T03:03:45.382Z,45.65
2019-05-19T03:06:14.137Z,20.95
2019-05-19T03:08:42.914Z,22.87
2019-05-19T03:11:11.696Z,20.60
2019-05-19T03:13:40.494Z,21.48
2019-05-19T03:16:09.276Z,19.30
2019-05-19T03:18:38.035Z,18.70
2019-05-19T03:21:10.881Z,19.27
2019-05-19T03:23:37.314Z,18.50
2019-05-19T03:26:06.156Z,16.87
2019-05-19T03:28:34.897Z,16.80
2019-05-19T03:31:14.126Z,17.73
2019-05-19T03:33:44.435Z,17.80
2019-05-19T03:36:13.197Z,18.90
2019-05-19T03:38:42.015Z,18.80
2019-05-19T03:41:10.787Z,19.37
2019-05-19T03:43:39.538Z,19.95
2019-05-19T03:46:08.434Z,27.77
2019-05-19T03:48:37.316Z,20.37
2019-05-19T03:51:06.134Z,20.17
2019-05-19T03:53:34.876Z,18.98
2019-05-19T03:56:03.644Z,21.75
2019-05-19T03:58:32.442Z,23.67
2019-05-19T04:01:01.319Z,26.42
2019-05-19T04:03:30.134Z,28.83
2019-05-19T04:05:58.877Z,33.33
2019-05-19T04:08:27.714Z,33.02
2019-05-19T04:10:56.514Z,37.08
2019-05-19T04:13:25.254Z,43.02
2019-05-19T04:15:54.072Z,55.23
2019-05-19T04:18:22.836Z,35.35
2019-05-19T04:20:51.655Z,33.78
2019-05-19T04:23:20.441Z,35.88
2019-05-19T04:25:49.197Z,34.13
2019-05-19T04:28:18.015Z,35.63
2019-05-19T04:30:46.815Z,35.92
2019-05-19T04:33:15.655Z,34.58
2019-05-19T04:35:44.540Z,28.35
2019-05-19T04:38:13.395Z,27.75
2019-05-19T04:40:43.406Z,25.68
2019-05-19T04:43:12.138Z,26.87
2019-05-19T04:45:40.972Z,33.05
2019-05-19T04:48:09.975Z,34.63
2019-05-19T04:50:38.833Z,35.58
2019-05-19T04:53:07.616Z,35.90
2019-05-19T04:55:36.376Z,35.83
2019-05-19T04:58:05.174Z,35.25
2019-05-19T05:00:33.956Z,37.35
2019-05-19T05:03:02.676Z,37.55
2019-05-19T05:05:31.435Z,37.48
2019-05-19T05:08:00.198Z,37.38
2019-05-19T05:10:29.034Z,37.25
2019-05-19T05:12:57.756Z,39.27
2019-05-19T05:15:26.534Z,38.15
2019-05-19T05:17:55.335Z,39.83
2019-05-19T05:20:24.114Z,38.75
2019-05-19T05:22:52.918Z,37.78
2019-05-19T05:25:21.654Z,36.38
2019-05-19T05:27:50.474Z,39.42
2019-05-19T05:30:19.241Z,37.65
2019-05-19T05:32:48.015Z,38.38
2019-05-19T05:35:16.816Z,37.40
2019-05-19T05:37:45.635Z,36.48
2019-05-19T05:40:14.415Z,37.30
2019-05-19T05:42:43.249Z,38.95
2019-05-19T05:45:12.479Z,36.80
2019-05-19T05:47:41.276Z,35.68
2019-05-19T05:50:10.343Z,35.73
2019-05-19T05:52:39.349Z,34.60
2019-05-19T05:55:08.194Z,35.28
2019-05-19T05:57:36.956Z,34.15
2019-05-19T06:00:08.790Z,34.55
2019-05-19T06:02:37.735Z,32.60
2019-05-19T06:05:08.017Z,33.50
2019-05-19T06:07:36.791Z,27.65
2019-05-19T06:10:07.552Z,27.45
2019-05-19T06:12:36.312Z,27.82
2019-05-19T06:15:05.671Z,34.80
2019-05-19T06:17:34.496Z,30.05
2019-05-19T06:20:04.251Z,29.37
2019-05-19T06:22:33.474Z,29.50
2019-05-19T06:25:02.357Z,25.20
2019-05-19T06:27:31.472Z,22.67
2019-05-19T06:30:00.333Z,21.85
2019-05-19T06:32:30.672Z,17.50
2019-05-19T06:34:59.505Z,17.73
2019-05-19T06:37:28.272Z,17.95
2019-05-19T06:39:57.052Z,16.00
2019-05-19T06:42:25.893Z,14.20
2019-05-19T06:44:54.659Z,11.70
2019-05-19T06:47:23.444Z,11.45
2019-05-19T06:49:52.227Z,13.55
2019-05-19T06:52:21.014Z,12.43
2019-05-19T06:54:49.857Z,12.07
2019-05-19T06:57:18.605Z,12.07
2019-05-19T06:59:47.372Z,13.60
2019-05-19T07:02:16.194Z,13.30
2019-05-19T07:04:45.011Z,13.62
2019-05-19T07:07:13.865Z,14.35
2019-05-19T07:09:55.967Z,14.45
2019-05-19T07:12:13.193Z,13.95
2019-05-19T07:14:41.953Z,13.03
2019-05-19T07:17:10.737Z,12.33
2019-05-19T07:19:39.533Z,11.93
2019-05-19T07:22:08.291Z,10.93
2019-05-19T07:24:37.053Z,11.38
2019-05-19T07:27:05.851Z,13.43
2019-05-19T07:29:34.575Z,13.28
2019-05-19T07:32:03.412Z,11.83
2019-05-19T07:34:32.313Z,10.53
2019-05-19T07:37:01.153Z,12.65
2019-05-19T07:39:29.954Z,12.63
2019-05-19T07:41:58.693Z,13.78
2019-05-19T07:44:27.492Z,11.18
2019-05-19T07:46:56.255Z,11.43
2019-05-19T07:49:25.074Z,13.22
2019-05-19T07:51:53.814Z,13.68
2019-05-19T07:54:22.565Z,13.55
2019-05-19T07:56:51.330Z,12.93
2019-05-19T07:59:20.106Z,13.98
2019-05-19T08:01:48.911Z,12.88
2019-05-19T08:04:17.656Z,16.67
2019-05-19T08:06:46.388Z,14.33
2019-05-19T08:09:15.173Z,15.28
2019-05-19T08:11:44.032Z,13.70
2019-05-19T08:14:12.808Z,13.38
2019-05-19T08:16:41.593Z,15.23
2019-05-19T08:19:10.412Z,12.20
2019-05-19T08:21:39.151Z,12.25
2019-05-19T08:24:07.912Z,13.35
2019-05-19T08:26:36.694Z,13.55
2019-05-19T08:29:05.496Z,12.10
2019-05-19T08:31:34.293Z,11.85
2019-05-19T08:34:03.106Z,10.43
2019-05-19T08:36:31.976Z,11.20
2019-05-19T08:39:00.752Z,10.68
2019-05-19T08:41:29.531Z,10.93
2019-05-19T08:43:58.311Z,9.60
2019-05-19T08:46:27.157Z,10.65
2019-05-19T08:48:58.482Z,9.20
2019-05-19T08:51:26.495Z,9.73
2019-05-19T08:53:55.334Z,9.78
2019-05-19T08:56:24.114Z,9.73
2019-05-19T08:58:52.934Z,9.00
2019-05-19T09:01:21.716Z,8.65
2019-05-19T09:03:50.555Z,9.05
2019-05-19T09:06:19.315Z,9.68
2019-05-19T09:08:48.205Z,9.03
2019-05-19T09:11:16.996Z,8.93
2019-05-19T09:13:45.998Z,8.68
2019-05-19T09:16:14.874Z,9.20
2019-05-19T09:18:43.616Z,8.75
2019-05-19T09:21:12.382Z,7.72
2019-05-19T09:23:41.155Z,8.33
2019-05-19T09:26:09.935Z,8.13
2019-05-19T09:28:38.721Z,8.60
2019-05-19T09:31:07.475Z,7.45
2019-05-19T09:33:36.293Z,8.23
2019-05-19T09:36:05.934Z,7.65
2019-05-19T09:38:34.663Z,6.95
2019-05-19T09:41:03.553Z,7.60
2019-05-19T09:43:32.291Z,7.03
2019-05-19T09:46:01.113Z,7.58
2019-05-19T09:48:29.863Z,6.97
2019-05-19T09:50:58.712Z,7.25
2019-05-19T09:53:33.436Z,8.88
2019-05-19T09:56:02.152Z,5.87
2019-05-19T09:58:30.993Z,5.85
2019-05-19T10:00:59.712Z,5.20
2019-05-19T10:03:28.472Z,5.47
2019-05-19T10:05:57.231Z,5.37
2019-05-19T10:08:26.240Z,7.33
2019-05-19T10:11:14.155Z,6.15
2019-05-19T10:13:42.892Z,6.12
2019-05-19T10:16:11.653Z,7.05
2019-05-19T10:18:40.474Z,6.53
2019-05-19T10:21:09.215Z,7.22
2019-05-19T10:23:38.012Z,6.37
2019-05-19T10:26:06.772Z,7.42
2019-05-19T10:28:35.544Z,5.80
2019-05-19T10:31:04.333Z,5.70
2019-05-19T10:33:33.092Z,6.10
2019-05-19T10:36:01.844Z,6.10
2019-05-19T10:38:30.619Z,7.00
2019-05-19T10:40:59.433Z,5.35
2019-05-19T10:43:28.211Z,7.10
2019-05-19T10:46:00.083Z,6.60
2019-05-19T10:48:28.862Z,7.70
2019-05-19T10:50:57.615Z,7.15
2019-05-19T10:53:26.435Z,7.08
2019-05-19T10:55:55.194Z,6.78
2019-05-19T10:58:23.960Z,6.62
2019-05-19T11:00:52.737Z,7.30
2019-05-19T11:03:21.520Z,8.50
2019-05-19T11:05:50.334Z,8.63
2019-05-19T11:08:19.155Z,8.40
2019-05-19T11:10:47.976Z,7.92
2019-05-19T11:13:16.759Z,8.88
2019-05-19T11:15:45.534Z,6.22
2019-05-19T11:18:14.395Z,5.03
2019-05-19T11:20:43.155Z,6.15
2019-05-19T11:23:11.966Z,6.12
2019-05-19T11:25:51.083Z,5.58
2019-05-19T11:28:11.206Z,6.87
2019-05-19T11:30:39.999Z,6.92
2019-05-19T11:33:08.817Z,5.95
2019-05-19T11:35:37.614Z,5.35
2019-05-19T11:38:06.374Z,5.80
2019-05-19T11:40:35.178Z,5.30
2019-05-19T11:43:03.935Z,5.10
2019-05-19T11:45:32.795Z,5.10
2019-05-19T11:48:01.575Z,4.95
2019-05-19T11:50:30.301Z,5.00
2019-05-19T11:52:59.115Z,6.10
2019-05-19T11:55:27.855Z,5.95
2019-05-19T11:57:56.675Z,6.22
2019-05-19T12:00:25.438Z,6.58
2019-05-19T12:02:54.194Z,6.53
2019-05-19T12:05:23.066Z,5.92
2019-05-19T12:07:51.855Z,6.75
2019-05-19T12:10:20.685Z,7.53
2019-05-19T12:12:49.435Z,5.53
2019-05-19T12:15:18.374Z,5.85
2019-05-19T12:17:47.155Z,6.75
2019-05-19T12:20:16.014Z,5.10
2019-05-19T12:22:44.837Z,4.70
2019-05-19T12:25:14.015Z,5.03
2019-05-19T12:27:42.775Z,5.15
2019-05-19T12:30:14.474Z,4.67
2019-05-19T12:32:43.254Z,4.80
2019-05-19T12:35:12.374Z,5.00
2019-05-19T12:37:41.135Z,5.00
2019-05-19T12:40:10.095Z,5.65
2019-05-19T12:42:38.894Z,5.40
2019-05-19T12:45:11.438Z,6.00
2019-05-19T12:47:40.367Z,6.20
2019-05-19T12:50:09.815Z,5.30
2019-05-19T12:52:38.567Z,5.10
2019-05-19T12:55:07.708Z,5.55
2019-05-19T12:57:36.595Z,7.08
2019-05-19T13:00:06.635Z,6.62
2019-05-19T13:02:37.990Z,5.28
2019-05-19T13:05:07.006Z,6.75
2019-05-19T13:07:35.775Z,5.80
2019-05-19T13:10:08.514Z,7.72
2019-05-19T13:12:37.318Z,6.97
2019-05-19T13:15:07.598Z,5.10
2019-05-19T13:17:36.416Z,5.00
2019-05-19T13:20:05.841Z,7.58
2019-05-19T13:22:34.635Z,5.67
2019-05-19T13:25:03.835Z,5.05
2019-05-19T13:27:32.595Z,4.90
2019-05-19T13:30:01.501Z,5.87
2019-05-19T13:32:30.274Z,5.70
2019-05-19T13:34:59.035Z,5.85
2019-05-19T13:37:27.836Z,5.65
2019-05-19T13:39:56.599Z,6.15
2019-05-19T13:42:25.450Z,6.33
2019-05-19T13:44:54.194Z,6.08
2019-05-19T13:47:22.995Z,6.17
2019-05-19T13:49:51.775Z,5.17
2019-05-19T13:52:20.636Z,5.47
2019-05-19T13:54:49.451Z,5.65
2019-05-19T13:57:18.234Z,5.53
2019-05-19T13:59:47.017Z,5.70
2019-05-19T14:02:15.795Z,5.55
2019-05-19T14:04:44.580Z,6.03
2019-05-19T14:07:13.355Z,5.67
2019-05-19T14:09:42.117Z,5.53
2019-05-19T14:12:10.929Z,5.62
2019-05-19T14:14:39.679Z,5.62
2019-05-19T14:17:08.434Z,5.90
2019-05-19T14:19:37.292Z,5.75
2019-05-19T14:22:06.112Z,5.37
2019-05-19T14:24:34.871Z,5.12
2019-05-19T14:27:03.672Z,4.78
2019-05-19T14:29:32.514Z,5.05
2019-05-19T14:32:01.312Z,5.50
2019-05-19T14:34:30.097Z,5.08
2019-05-19T14:36:58.855Z,5.53
2019-05-19T14:39:27.637Z,5.08
2019-05-19T14:41:57.994Z,5.40
2019-05-19T14:44:26.775Z,6.75
2019-05-19T14:46:55.573Z,19.92
2019-05-19T14:49:24.356Z,5.33
2019-05-19T14:51:53.136Z,5.75
2019-05-19T14:54:21.916Z,5.67
2019-05-19T14:56:50.694Z,5.58
2019-05-19T14:59:19.548Z,5.75
2019-05-19T15:01:48.359Z,5.72
2019-05-19T15:04:17.122Z,4.20
2019-05-19T15:06:45.875Z,4.35
2019-05-19T15:09:14.655Z,4.50
2019-05-19T15:11:43.455Z,4.58
2019-05-19T15:14:12.312Z,4.85
2019-05-19T15:16:41.075Z,5.80
2019-05-19T15:19:09.894Z,5.40
2019-05-19T15:21:38.695Z,4.70
2019-05-19T15:24:07.463Z,4.85
2019-05-19T15:26:36.275Z,5.78
2019-05-19T15:29:05.035Z,5.83
2019-05-19T15:31:33.762Z,6.35
2019-05-19T15:34:02.554Z,5.80
2019-05-19T15:36:31.323Z,6.75
2019-05-19T15:39:00.113Z,6.72
2019-05-19T15:41:28.875Z,6.55
2019-05-19T15:43:57.637Z,6.15
2019-05-19T15:46:26.412Z,6.53
2019-05-19T15:48:55.173Z,6.75
2019-05-19T15:51:28.976Z,6.58
2019-05-19T15:53:54.493Z,8.38
2019-05-19T15:56:23.313Z,10.63
2019-05-19T15:58:52.089Z,10.23
2019-05-19T16:01:20.860Z,9.38
2019-05-19T16:03:49.724Z,10.30
2019-05-19T16:06:18.517Z,11.05
2019-05-19T16:08:47.293Z,11.05
2019-05-19T16:11:16.052Z,10.00
2019-05-19T16:13:44.832Z,9.90
2019-05-19T16:16:13.652Z,10.80
2019-05-19T16:18:42.411Z,8.80
2019-05-19T16:21:11.172Z,9.23
2019-05-19T16:23:39.972Z,8.75
2019-05-19T16:26:08.754Z,8.93
2019-05-19T16:28:37.575Z,9.10
2019-05-19T16:31:06.534Z,9.20
2019-05-19T16:33:35.375Z,11.35
2019-05-19T16:36:07.575Z,8.90
2019-05-19T16:38:34.636Z,9.30
2019-05-19T16:41:03.411Z,8.70
2019-05-19T16:43:32.150Z,9.98
2019-05-19T16:46:00.913Z,9.90
2019-05-19T16:48:29.720Z,9.58
2019-05-19T16:50:58.504Z,10.45
2019-05-19T16:53:27.315Z,8.70
2019-05-19T16:55:56.077Z,8.75
2019-05-19T16:58:24.874Z,8.85
2019-05-19T17:00:53.655Z,9.70
2019-05-19T17:03:22.594Z,8.65
2019-05-19T17:05:51.363Z,12.15
2019-05-19T17:08:20.135Z,12.37
2019-05-19T17:10:48.935Z,12.00
2019-05-19T17:13:17.776Z,10.50
2019-05-19T17:15:46.555Z,10.93
2019-05-19T17:18:15.321Z,11.45
2019-05-19T17:20:44.095Z,11.18
2019-05-19T17:23:12.877Z,9.68
2019-05-19T17:25:41.674Z,10.03
2019-05-19T17:28:10.454Z,10.00
2019-05-19T17:30:39.282Z,11.22
2019-05-19T17:33:08.074Z,12.75
2019-05-19T17:35:36.921Z,19.70
2019-05-19T17:38:05.696Z,15.60
2019-05-19T17:40:34.594Z,32.35
2019-05-19T17:43:03.498Z,22.60
2019-05-19T17:45:32.275Z,17.62
2019-05-19T17:48:09.734Z,18.67
2019-05-19T17:50:35.755Z,21.82
2019-05-19T17:53:04.955Z,20.60
2019-05-19T17:55:35.168Z,18.42
2019-05-19T17:58:04.678Z,15.43
2019-05-19T18:00:41.434Z,18.12
2019-05-19T18:03:10.654Z,13.90
2019-05-19T18:05:39.615Z,14.15
2019-05-19T18:08:08.460Z,13.70
2019-05-19T18:10:37.383Z,13.35
2019-05-19T18:13:06.231Z,13.53
2019-05-19T18:15:35.792Z,14.45
2019-05-19T18:18:04.712Z,15.90
2019-05-19T18:20:33.600Z,44.05
2019-05-19T18:23:02.487Z,21.25
2019-05-19T18:25:31.441Z,15.58
2019-05-19T18:28:00.355Z,14.40
2019-05-19T18:30:29.255Z,25.45
2019-05-19T18:32:58.081Z,17.52
2019-05-19T18:35:26.915Z,18.85
2019-05-19T18:37:55.815Z,15.58
2019-05-19T18:40:24.695Z,18.85
2019-05-19T18:42:53.485Z,17.30
2019-05-19T18:45:22.345Z,16.07
2019-05-19T18:47:51.201Z,17.07
2019-05-19T18:50:20.835Z,17.42
2019-05-19T18:52:49.735Z,17.95
2019-05-19T18:55:18.583Z,18.35
2019-05-19T18:57:47.395Z,18.05
2019-05-19T19:00:19.415Z,18.25
2019-05-19T19:02:48.235Z,18.77
2019-05-19T19:05:17.135Z,17.37
2019-05-19T19:07:50.545Z,20.05
2019-05-19T19:10:20.114Z,19.07
2019-05-19T19:12:49.075Z,18.48
2019-05-19T19:15:18.075Z,20.08
2019-05-19T19:17:46.915Z,20.35
2019-05-19T19:20:16.085Z,17.65
2019-05-19T19:22:44.901Z,18.20
2019-05-19T19:25:13.895Z,14.07
2019-05-19T19:27:42.674Z,15.83
2019-05-19T19:30:11.917Z,16.75
2019-05-19T19:32:40.795Z,16.57
2019-05-19T19:35:10.195Z,16.50
2019-05-19T19:37:39.074Z,19.07
2019-05-19T19:40:08.637Z,18.98
2019-05-19T19:42:37.417Z,22.40
2019-05-19T19:45:06.859Z,26.25
2019-05-19T19:47:35.635Z,25.80
2019-05-19T19:50:06.475Z,40.98
2019-05-19T19:52:35.339Z,27.60
2019-05-19T19:55:04.876Z,31.15
2019-05-19T19:57:33.652Z,28.40
2019-05-19T20:00:02.480Z,26.62
2019-05-19T20:02:31.317Z,31.10
2019-05-19T20:05:00.154Z,33.78
2019-05-19T20:07:28.915Z,45.95
2019-05-19T20:09:57.717Z,74.62
2019-05-19T20:12:26.550Z,36.48
2019-05-19T20:14:55.390Z,34.45
2019-05-19T20:17:24.156Z,31.02
2019-05-19T20:19:53.990Z,48.08
2019-05-19T20:22:22.830Z,30.23
2019-05-19T20:24:51.790Z,32.60
2019-05-19T20:27:20.590Z,35.73
2019-05-19T20:29:49.469Z,28.15
2019-05-19T20:32:18.268Z,27.37
2019-05-19T20:34:47.028Z,25.48
2019-05-19T20:37:15.790Z,23.22
2019-05-19T20:39:44.589Z,23.80
2019-05-19T20:42:13.429Z,23.30
2019-05-19T20:44:42.188Z,25.43
2019-05-19T20:47:11.067Z,25.32
2019-05-19T20:49:39.947Z,25.62
2019-05-19T20:52:08.747Z,32.35
2019-05-19T20:54:37.668Z,43.55
2019-05-19T20:57:06.468Z,23.22
2019-05-19T20:59:35.269Z,23.00
2019-05-19T21:02:04.077Z,24.35
2019-05-19T21:04:32.839Z,23.57
2019-05-19T21:07:01.636Z,25.57
2019-05-19T21:09:30.439Z,28.83
2019-05-19T21:11:59.166Z,26.30
2019-05-19T21:14:27.998Z,21.77
2019-05-19T21:16:56.798Z,20.05
2019-05-19T21:19:25.637Z,20.20
2019-05-19T21:21:54.437Z,21.35
2019-05-19T21:24:23.238Z,23.18
2019-05-19T21:26:52.077Z,24.98
2019-05-19T21:29:20.838Z,19.80
2019-05-19T21:31:49.716Z,21.62
2019-05-19T21:34:18.520Z,16.65
2019-05-19T21:36:47.317Z,15.75
2019-05-19T21:39:16.077Z,15.38
2019-05-19T21:41:44.916Z,17.12
2019-05-19T21:44:13.815Z,18.27
2019-05-19T21:46:42.640Z,20.77
2019-05-19T21:49:11.481Z,17.87
2019-05-19T21:51:40.277Z,14.93
2019-05-19T21:54:09.078Z,14.00
2019-05-19T21:56:37.876Z,16.50
2019-05-19T21:59:06.649Z,15.75
2019-05-19T22:01:35.639Z,17.30
2019-05-19T22:04:04.516Z,18.67
2019-05-19T22:06:34.836Z,16.82
2019-05-19T22:09:04.756Z,18.98
2019-05-19T22:11:33.584Z,21.12
2019-05-19T22:14:02.477Z,25.20
2019-05-19T22:16:31.263Z,27.70
2019-05-19T22:19:00.116Z,22.42
2019-05-19T22:21:28.886Z,38.15
2019-05-19T22:23:57.679Z,35.85
2019-05-19T22:26:26.687Z,26.07
2019-05-19T22:28:55.437Z,25.95
2019-05-19T22:31:36.263Z,27.30
2019-05-19T22:33:58.198Z,30.27
2019-05-19T22:36:26.996Z,29.42
2019-05-19T22:38:55.838Z,28.38
2019-05-19T22:41:24.596Z,30.45
2019-05-19T22:43:53.366Z,21.35
2019-05-19T22:46:22.204Z,21.07
2019-05-19T22:48:51.038Z,22.50
2019-05-19T22:51:22.690Z,29.82
2019-05-19T22:53:50.357Z,30.10
2019-05-19T22:56:19.198Z,28.45
2019-05-19T22:58:47.918Z,30.43
2019-05-19T23:01:16.719Z,31.80
2019-05-19T23:03:45.527Z,32.53
2019-05-19T23:06:14.358Z,33.25
2019-05-19T23:08:43.237Z,32.40
2019-05-19T23:11:11.998Z,33.25
2019-05-19T23:13:40.804Z,28.90
2019-05-19T23:16:09.679Z,26.95
2019-05-19T23:18:38.518Z,23.38
2019-05-19T23:21:07.320Z,29.42
2019-05-19T23:23:36.089Z,35.52
2019-05-19T23:26:04.962Z,34.75
2019-05-19T23:28:33.757Z,33.73
2019-05-19T23:31:02.597Z,30.12
2019-05-19T23:33:31.405Z,31.05
2019-05-19T23:36:00.197Z,35.45
2019-05-19T23:38:28.982Z,27.93
2019-05-19T23:40:57.760Z,27.45
2019-05-19T23:43:26.638Z,27.17
2019-05-19T23:45:55.437Z,27.20
2019-05-19T23:48:24.236Z,24.32
2019-05-19T23:50:53.150Z,30.20
2019-05-19T23:53:21.997Z,28.92
2019-05-19T23:55:50.796Z,27.15
2019-05-19T23:58:19.558Z,30.37
